Spencertown, NY (12165)

12:20 AM EST on March 07, 2015 (GMT -0500)
chatham | Change Station
CLOSE
Current Station
Personal Weather Station
Location: Spencertown, NY
Elevation: 1017 ft
Nearby Weather Stations

Elev 1017 ft 42.32 °N, 73.52 °W | Updated 31 seconds ago

Partly Cloudy
Partly Cloudy
14.2 °F
Feels Like 14 °F
N
0.0
Wind Variable Wind from NNW
Gusts 0.0 mph

Today
High -- | Low -- °F
--% Chance of Precip.
Yesterday
High -- | Low -- °F
Precip. -- in
6:20 AM 5:50 PM
Full, 98% visible
Pressure 30.28 in
Visibility 10.0 miles
Clouds Clear
Windchill 14 °F
Dew Point 3 °F
Humidity 60%
Rainfall 0.00 in
Snow Depth Not available.
UV 0 out of 12
Pollen .50 out of 12
Air Quality Not available.
Flu Activity Not available.
METAR KPSF 070454Z AUTO 04003KT 10SM CLR M14/M19 A3019 RMK AO2 SLP252 T11391189 410611172

More Conditions Fewer Conditions

Pressure 30.28 in
Visibility 10.0 miles
Clouds Clear
Windchill 14 °F
Dew Point 3 °F
Humidity 60%
Rainfall 0.00 in
Snow Depth Not available.
UV 0 out of 12
Pollen .50 out of 12
Air Quality Not available.
Flu Activity Not available.
METAR KPSF 070454Z AUTO 04003KT 10SM CLR M14/M19 A3019 RMK AO2 SLP252 T11391189 410611172

More Conditions Fewer Conditions

10-Day Weather Forecast

Almanac

Astronomy

Mar. 07, 2015 Rise Set
Actual Time
Civil Twilight
Nautical Twilight
Astronomical Twilight
Moon
Length of Visible Light
Length of Day
Tomorrow will be .
, % of the Moon is Illuminated

Today's Extremes

State Highs State Lows

Community

WunderPhotos

Upload Photos

1,803,550 photos uploaded!

WunderBlogs® & News

Nearby

Air Quality

  Air Quality AQ Index Pollutant
Not available.

Snow Depth

Station Depth Elevation

Earthquake Activity

City Distance Mag. Time & Date
Minimum magnitude displayed is 2.5.

Coastal Water Temperatures

Place Temperature

Nearby Weather Stations